createdAt,value
2022-11-28T00:02:14.168Z,42.33
2022-11-28T00:04:44.016Z,38.42
2022-11-28T00:07:12.784Z,41.55
2022-11-28T00:09:41.694Z,39.92
2022-11-28T00:12:10.008Z,40.40
2022-11-28T00:14:42.000Z,42.00
2022-11-28T00:17:10.814Z,49.22
2022-11-28T00:19:41.569Z,47.63
2022-11-28T00:22:11.179Z,40.35
2022-11-28T00:24:47.273Z,41.22
2022-11-28T00:27:16.717Z,38.65
2022-11-28T00:29:44.703Z,36.53
2022-11-28T00:32:14.313Z,42.83
2022-11-28T00:34:46.557Z,37.70
2022-11-28T00:37:16.887Z,42.53
2022-11-28T00:39:47.873Z,49.13
2022-11-28T00:42:21.347Z,45.63
2022-11-28T00:44:50.097Z,43.08
2022-11-28T00:47:19.044Z,47.40
2022-11-28T00:49:47.887Z,42.80
2022-11-28T00:52:19.684Z,40.95
2022-11-28T00:54:47.697Z,40.28
2022-11-28T00:57:17.114Z,35.65
2022-11-28T00:59:45.124Z,47.33
2022-11-28T01:02:14.801Z,38.95
2022-11-28T01:04:43.303Z,38.70
2022-11-28T01:07:12.595Z,37.55
2022-11-28T01:09:42.154Z,42.75
2022-11-28T01:12:11.116Z,46.90
2022-11-28T01:14:44.360Z,41.92
2022-11-28T01:17:14.101Z,45.55
2022-11-28T01:19:42.445Z,39.92
2022-11-28T01:22:10.861Z,36.63
2022-11-28T01:24:38.868Z,39.38
2022-11-28T01:27:09.689Z,35.03
2022-11-28T01:29:38.459Z,33.17
2022-11-28T01:32:06.562Z,36.25
2022-11-28T01:34:34.595Z,32.38
2022-11-28T01:37:03.384Z,40.90
2022-11-28T01:39:32.050Z,45.10
2022-11-28T01:42:00.423Z,41.47
2022-11-28T01:45:06.429Z,43.35
2022-11-28T01:47:35.536Z,40.42
2022-11-28T01:50:06.514Z,38.95
2022-11-28T01:52:36.482Z,39.15
2022-11-28T01:55:06.631Z,52.92
2022-11-28T01:57:36.417Z,41.72
2022-11-28T02:00:11.893Z,38.70
2022-11-28T02:02:44.617Z,36.38
2022-11-28T02:05:12.757Z,39.97
2022-11-28T02:07:42.408Z,39.95
2022-11-28T02:10:13.577Z,33.80
2022-11-28T02:12:55.669Z,34.50
2022-11-28T02:15:35.065Z,37.63
2022-11-28T02:18:14.527Z,37.70
2022-11-28T02:20:57.684Z,41.10
2022-11-28T02:26:22.314Z,32.55
2022-11-28T02:29:12.302Z,35.00
2022-11-28T02:32:02.013Z,35.45
2022-11-28T02:34:41.119Z,36.28
2022-11-28T02:37:17.470Z,42.25
2022-11-28T02:39:56.709Z,38.50
2022-11-28T02:42:31.869Z,41.10
2022-11-28T02:45:02.125Z,38.80
2022-11-28T02:47:34.717Z,34.80
2022-11-28T02:50:07.346Z,35.15
2022-11-28T02:52:37.645Z,45.28
2022-11-28T02:55:09.807Z,36.63
2022-11-28T03:00:26.484Z,36.40
2022-11-28T03:03:17.843Z,35.65
2022-11-28T03:05:51.165Z,37.20
2022-11-28T03:08:32.185Z,38.17
2022-11-28T03:11:05.599Z,41.25
2022-11-28T03:13:39.986Z,40.97
2022-11-28T03:16:16.139Z,34.47
2022-11-28T03:18:56.200Z,37.58
2022-11-28T03:21:27.297Z,36.60
2022-11-28T03:24:00.877Z,49.20
2022-11-28T03:26:34.253Z,34.70
2022-11-28T03:29:10.111Z,35.75
2022-11-28T03:31:40.892Z,38.78
2022-11-28T03:34:15.086Z,32.90
2022-11-28T03:36:48.730Z,48.45
2022-11-28T03:39:23.943Z,39.47
2022-11-28T03:41:57.007Z,38.60
2022-11-28T03:44:30.046Z,40.33
2022-11-28T03:46:59.579Z,39.88
2022-11-28T03:49:32.218Z,43.10
2022-11-28T03:52:03.774Z,38.85
2022-11-28T03:54:36.131Z,35.60
2022-11-28T03:57:08.512Z,41.75
2022-11-28T03:59:39.143Z,37.13
2022-11-28T04:02:14.975Z,39.13
2022-11-28T04:04:52.080Z,36.28
2022-11-28T04:07:25.336Z,34.70
2022-11-28T04:10:03.323Z,40.55
2022-11-28T04:12:38.755Z,35.92
2022-11-28T04:15:10.825Z,36.85
2022-11-28T04:17:43.383Z,37.28
2022-11-28T04:20:16.426Z,39.65
2022-11-28T04:22:48.479Z,32.75
2022-11-28T04:25:21.556Z,40.17
2022-11-28T04:27:55.406Z,33.55
2022-11-28T04:30:23.523Z,39.75
2022-11-28T04:32:54.458Z,36.42
2022-11-28T04:35:30.285Z,40.22
2022-11-28T04:38:03.409Z,31.55
2022-11-28T04:40:34.490Z,38.58
2022-11-28T04:43:05.750Z,35.13
2022-11-28T04:45:36.908Z,33.83
2022-11-28T04:53:19.049Z,32.78
2022-11-28T04:55:51.836Z,35.60
2022-11-28T04:58:24.787Z,26.92
2022-11-28T05:01:00.879Z,34.85
2022-11-28T05:03:31.860Z,35.35
2022-11-28T05:06:03.422Z,33.35
2022-11-28T05:08:33.634Z,34.50
2022-11-28T05:11:02.860Z,31.45
2022-11-28T05:13:31.383Z,31.73
2022-11-28T05:16:03.376Z,36.63
2022-11-28T05:18:34.635Z,31.92
2022-11-28T05:21:08.105Z,33.42
2022-11-28T05:23:37.005Z,35.30
2022-11-28T05:26:11.729Z,33.95
2022-11-28T05:28:41.744Z,32.03
2022-11-28T05:31:11.464Z,30.08
2022-11-28T05:33:39.784Z,33.13
2022-11-28T05:36:13.722Z,28.08
2022-11-28T05:38:43.727Z,33.30
2022-11-28T05:41:21.302Z,29.23
2022-11-28T05:43:49.280Z,32.25
2022-11-28T05:46:18.249Z,29.90
2022-11-28T05:48:46.451Z,34.92
2022-11-28T05:51:18.721Z,31.33
2022-11-28T05:56:17.774Z,31.83
2022-11-28T05:58:46.724Z,32.57
2022-11-28T06:01:19.500Z,34.70
2022-11-28T06:03:51.100Z,28.40
2022-11-28T06:06:22.725Z,46.03
2022-11-28T06:08:53.502Z,28.95
2022-11-28T06:11:23.225Z,36.10
2022-11-28T06:13:53.315Z,32.70
2022-11-28T06:16:24.955Z,36.50
2022-11-28T06:18:56.812Z,40.30
2022-11-28T06:21:34.862Z,35.20
2022-11-28T06:24:09.006Z,30.88
2022-11-28T06:26:38.487Z,29.48
2022-11-28T06:29:06.430Z,35.22
2022-11-28T06:31:37.763Z,34.45
2022-11-28T06:34:09.508Z,34.33
2022-11-28T06:36:38.881Z,33.20
2022-11-28T06:39:07.251Z,32.72
2022-11-28T06:41:35.324Z,33.22
2022-11-28T06:44:04.556Z,30.08
2022-11-28T06:46:32.762Z,28.23
2022-11-28T06:49:03.431Z,32.72
2022-11-28T06:51:32.532Z,42.15
2022-11-28T06:54:02.562Z,32.22
2022-11-28T06:56:31.006Z,32.28
2022-11-28T06:59:00.727Z,33.67
2022-11-28T07:01:34.806Z,31.15
2022-11-28T07:04:03.257Z,30.80
2022-11-28T07:06:31.297Z,31.55
2022-11-28T07:09:00.417Z,33.35
2022-11-28T07:11:33.488Z,34.70
2022-11-28T07:14:03.314Z,34.05
2022-11-28T07:16:35.929Z,38.33
2022-11-28T07:19:04.149Z,37.83
2022-11-28T07:21:33.704Z,34.05
2022-11-28T07:24:03.958Z,36.25
2022-11-28T07:26:33.570Z,30.83
2022-11-28T07:29:01.751Z,41.97
2022-11-28T07:31:32.680Z,36.33
2022-11-28T07:34:03.584Z,36.28
2022-11-28T07:36:32.665Z,33.13
2022-11-28T07:39:04.786Z,34.95
2022-11-28T07:41:34.212Z,36.20
2022-11-28T07:44:07.060Z,32.22
2022-11-28T07:46:35.474Z,34.50
2022-11-28T07:49:04.349Z,34.10
2022-11-28T07:51:35.459Z,31.40
2022-11-28T07:54:05.844Z,33.90
2022-11-28T07:57:12.052Z,39.70
2022-11-28T07:59:26.698Z,29.17
2022-11-28T08:01:55.001Z,32.38
2022-11-28T08:04:24.426Z,34.00
2022-11-28T08:06:53.937Z,31.00
2022-11-28T08:09:25.352Z,43.70
2022-11-28T08:11:54.834Z,42.93
2022-11-28T08:14:28.079Z,33.05
2022-11-28T08:16:57.393Z,34.55
2022-11-28T08:19:30.589Z,36.30
2022-11-28T08:22:00.229Z,35.47
2022-11-28T08:24:28.477Z,38.83
2022-11-28T08:26:57.875Z,35.75
2022-11-28T08:29:27.482Z,40.50
2022-11-28T08:31:56.080Z,37.63
2022-11-28T08:34:24.286Z,37.90
2022-11-28T08:36:52.388Z,35.80
2022-11-28T08:39:24.960Z,41.63
2022-11-28T08:41:54.254Z,36.83
2022-11-28T08:44:25.236Z,40.38
2022-11-28T08:46:53.740Z,36.97
2022-11-28T08:49:23.054Z,35.80
2022-11-28T08:51:52.846Z,37.83
2022-11-28T08:54:30.007Z,38.72
2022-11-28T08:56:59.104Z,35.28
2022-11-28T08:59:29.489Z,38.78
2022-11-28T09:01:57.683Z,37.85
2022-11-28T09:04:26.192Z,33.22
2022-11-28T09:06:54.588Z,35.20
2022-11-28T09:09:27.126Z,36.25
2022-11-28T09:12:04.948Z,32.58
2022-11-28T09:14:34.576Z,35.53
2022-11-28T09:17:06.240Z,36.20
2022-11-28T09:19:34.690Z,40.25
2022-11-28T09:22:02.702Z,35.08
2022-11-28T09:24:33.981Z,41.78
2022-11-28T09:27:04.870Z,39.87
2022-11-28T09:29:34.358Z,35.08
2022-11-28T09:32:02.823Z,38.25
2022-11-28T09:34:36.170Z,38.22
2022-11-28T09:37:08.120Z,39.92
2022-11-28T09:39:57.026Z,39.15
2022-11-28T09:42:30.963Z,36.97
2022-11-28T09:45:03.253Z,39.70
2022-11-28T09:47:36.973Z,39.75
2022-11-28T09:50:14.949Z,39.95
2022-11-28T09:52:49.479Z,36.25
2022-11-28T09:55:27.805Z,37.15
2022-11-28T09:57:57.993Z,37.92
2022-11-28T10:00:35.305Z,38.65
2022-11-28T10:03:18.933Z,39.20
2022-11-28T10:05:57.220Z,35.10
2022-11-28T10:08:37.638Z,36.42
2022-11-28T10:11:13.280Z,36.03
2022-11-28T10:14:07.069Z,34.42
2022-11-28T10:16:47.457Z,33.63
2022-11-28T10:19:52.213Z,36.80
2022-11-28T10:22:13.262Z,35.45
2022-11-28T10:24:47.024Z,39.42
2022-11-28T10:27:16.965Z,40.28
2022-11-28T10:29:53.622Z,30.92
2022-11-28T10:32:29.943Z,38.28
2022-11-28T10:35:02.348Z,35.67
2022-11-28T10:37:33.470Z,39.17
2022-11-28T10:40:15.785Z,38.03
2022-11-28T10:42:48.751Z,40.15
2022-11-28T10:45:25.080Z,39.45
2022-11-28T10:48:39.068Z,39.45
2022-11-28T10:51:16.950Z,42.17
2022-11-28T10:53:48.193Z,42.67
2022-11-28T10:56:27.775Z,35.33
2022-11-28T10:59:03.219Z,38.28
2022-11-28T11:01:34.184Z,35.80
2022-11-28T11:04:05.585Z,36.83
2022-11-28T11:06:41.673Z,36.57
2022-11-28T11:09:15.933Z,36.53
2022-11-28T11:11:52.113Z,39.17
2022-11-28T11:14:35.220Z,37.40
2022-11-28T11:17:05.647Z,33.83
2022-11-28T11:19:36.776Z,37.38
2022-11-28T11:22:07.916Z,34.42
2022-11-28T11:24:36.822Z,32.55
2022-11-28T11:27:14.089Z,38.38
2022-11-28T11:29:44.032Z,38.40
2022-11-28T11:32:21.808Z,37.85
2022-11-28T11:34:55.125Z,36.25
2022-11-28T11:37:34.698Z,37.97
2022-11-28T11:40:04.720Z,40.80
2022-11-28T11:42:35.750Z,34.75
2022-11-28T11:45:26.137Z,37.10
2022-11-28T11:47:54.410Z,42.90
2022-11-28T11:50:25.345Z,35.45
2022-11-28T11:53:06.997Z,39.65
2022-11-28T11:55:46.103Z,38.63
2022-11-28T11:58:17.529Z,35.50
2022-11-28T12:00:46.334Z,34.07
2022-11-28T12:03:22.785Z,34.15
2022-11-28T12:08:48.917Z,37.10
2022-11-28T12:11:22.054Z,35.10
2022-11-28T12:13:51.328Z,33.65
2022-11-28T12:16:33.655Z,35.95
2022-11-28T12:19:07.976Z,35.33
2022-11-28T12:21:41.636Z,35.53
2022-11-28T12:24:12.614Z,30.40
2022-11-28T12:26:49.387Z,35.10
2022-11-28T12:29:38.985Z,31.75
2022-11-28T12:32:18.870Z,28.05
2022-11-28T12:34:59.469Z,39.05
2022-11-28T12:38:09.083Z,28.30
2022-11-28T12:40:35.362Z,32.22
2022-11-28T12:43:17.770Z,28.48
2022-11-28T12:48:32.070Z,31.85
2022-11-28T12:51:04.768Z,33.70
2022-11-28T12:53:45.687Z,32.78
2022-11-28T12:56:27.295Z,31.85
2022-11-28T12:58:59.042Z,32.43
2022-11-28T13:01:42.258Z,34.92
2022-11-28T13:04:25.588Z,34.78
2022-11-28T13:07:00.329Z,34.65
2022-11-28T13:09:32.692Z,33.22
2022-11-28T13:12:15.490Z,37.78
2022-11-28T13:14:49.693Z,33.67
2022-11-28T13:17:24.331Z,36.65
2022-11-28T13:19:58.556Z,32.13
2022-11-28T13:22:30.601Z,32.85
2022-11-28T13:25:04.515Z,30.48
2022-11-28T13:27:39.145Z,33.05
2022-11-28T13:30:16.154Z,31.60
2022-11-28T13:32:48.920Z,31.73
2022-11-28T13:35:20.415Z,33.72
2022-11-28T13:40:48.004Z,31.85
2022-11-28T13:43:39.589Z,35.58
2022-11-28T13:46:08.508Z,32.92
2022-11-28T13:49:14.255Z,30.92
2022-11-28T13:51:43.184Z,30.00
2022-11-28T13:54:35.404Z,24.27
2022-11-28T13:57:19.049Z,32.15
2022-11-28T13:59:52.935Z,29.30
2022-11-28T14:02:24.346Z,26.98
2022-11-28T14:04:53.657Z,27.97
2022-11-28T14:07:29.727Z,28.00
2022-11-28T14:10:18.133Z,31.75
2022-11-28T14:12:59.001Z,35.33
2022-11-28T14:15:31.268Z,31.60
2022-11-28T14:20:35.028Z,34.60
2022-11-28T14:23:23.333Z,32.25
2022-11-28T14:25:52.754Z,37.13
2022-11-28T14:28:25.266Z,34.92
2022-11-28T14:33:25.599Z,37.45
2022-11-28T14:36:24.198Z,35.50
2022-11-28T14:39:11.465Z,32.15
2022-11-28T14:42:36.833Z,34.80
2022-11-28T14:45:42.841Z,38.58
2022-11-28T14:48:21.907Z,40.45
2022-11-28T14:51:00.872Z,42.70
2022-11-28T14:53:44.389Z,44.10
2022-11-28T14:56:25.490Z,41.83
2022-11-28T14:58:57.777Z,43.22
2022-11-28T15:04:16.177Z,41.90
2022-11-28T15:06:48.011Z,38.95
2022-11-28T15:09:24.421Z,59.05
2022-11-28T15:12:08.192Z,48.58
2022-11-28T15:14:38.626Z,40.88
2022-11-28T15:17:11.817Z,42.50
2022-11-28T15:19:44.777Z,43.28
2022-11-28T15:22:31.738Z,40.20
2022-11-28T15:25:05.399Z,45.15
2022-11-28T15:27:34.450Z,40.88
2022-11-28T15:30:04.496Z,42.00
2022-11-28T15:32:34.332Z,45.95
2022-11-28T15:35:12.271Z,41.20
2022-11-28T15:37:48.459Z,44.90
2022-11-28T15:40:21.580Z,42.17
2022-11-28T15:42:51.264Z,44.97
2022-11-28T15:45:24.425Z,48.97
2022-11-28T15:47:58.562Z,50.90
2022-11-28T15:50:29.161Z,39.45
2022-11-28T15:53:03.939Z,37.38
2022-11-28T15:55:34.876Z,44.47
2022-11-28T15:58:19.939Z,51.25
2022-11-28T16:00:52.202Z,47.40
2022-11-28T16:03:24.996Z,46.45
2022-11-28T16:05:56.085Z,50.70
2022-11-28T16:08:28.498Z,47.35
2022-11-28T16:11:00.469Z,45.97
2022-11-28T16:13:31.525Z,46.83
2022-11-28T16:16:04.155Z,48.13
2022-11-28T16:18:35.550Z,55.20
2022-11-28T16:21:04.784Z,47.90
2022-11-28T16:23:35.735Z,46.40
2022-11-28T16:26:05.679Z,51.33
2022-11-28T16:28:37.854Z,50.45
2022-11-28T16:31:13.331Z,53.00
2022-11-28T16:33:47.994Z,52.67
2022-11-28T16:36:22.440Z,56.28
2022-11-28T16:38:53.272Z,47.42
2022-11-28T16:41:25.946Z,47.00
2022-11-28T16:43:55.788Z,51.40
2022-11-28T16:46:25.754Z,51.15
2022-11-28T16:48:57.502Z,55.83
2022-11-28T16:51:32.767Z,51.85
2022-11-28T16:54:01.864Z,54.38
2022-11-28T16:56:44.377Z,54.90
2022-11-28T16:59:15.551Z,55.67
2022-11-28T17:01:45.306Z,58.13
2022-11-28T17:04:23.260Z,52.75
2022-11-28T17:06:52.209Z,61.42
2022-11-28T17:09:21.085Z,59.38
2022-11-28T17:11:53.568Z,67.15
2022-11-28T17:14:21.673Z,60.63
2022-11-28T17:16:53.029Z,57.60
2022-11-28T17:19:22.665Z,54.47
2022-11-28T17:21:52.467Z,63.80
2022-11-28T17:24:23.739Z,67.03
2022-11-28T17:29:22.747Z,57.40
2022-11-28T17:31:55.770Z,65.63
2022-11-28T17:34:28.821Z,60.55
2022-11-28T17:36:56.785Z,61.72
2022-11-28T17:39:25.155Z,60.75
2022-11-28T17:41:54.536Z,65.45
2022-11-28T17:44:24.750Z,62.83
2022-11-28T17:46:56.388Z,59.28
2022-11-28T17:49:26.460Z,63.83
2022-11-28T17:51:56.297Z,57.13
2022-11-28T17:54:26.461Z,64.00
2022-11-28T17:56:55.092Z,60.70
2022-11-28T17:59:24.616Z,67.65
2022-11-28T18:01:52.692Z,72.05
2022-11-28T18:04:20.964Z,66.80
2022-11-28T18:06:50.456Z,62.75
2022-11-28T18:09:19.929Z,67.25
2022-11-28T18:11:47.944Z,74.38
2022-11-28T18:14:19.669Z,65.03
2022-11-28T18:16:49.914Z,72.57
2022-11-28T18:19:18.379Z,70.75
2022-11-28T18:21:46.694Z,68.68
2022-11-28T18:24:18.730Z,71.15
2022-11-28T18:26:47.383Z,71.43
2022-11-28T18:29:16.639Z,73.03
2022-11-28T18:31:48.063Z,69.07
2022-11-28T18:34:17.452Z,70.63
2022-11-28T18:36:45.841Z,77.18
2022-11-28T18:39:18.825Z,73.53
2022-11-28T18:41:49.875Z,70.05
2022-11-28T18:44:18.672Z,78.85
2022-11-28T18:46:49.898Z,70.70
2022-11-28T18:49:19.544Z,72.20
2022-11-28T18:51:48.826Z,74.10
2022-11-28T18:54:25.198Z,78.95
2022-11-28T18:56:53.271Z,73.45
2022-11-28T18:59:22.684Z,75.35
2022-11-28T19:01:51.936Z,81.55
2022-11-28T19:04:23.180Z,79.75
2022-11-28T19:06:51.829Z,79.63
2022-11-28T19:09:27.036Z,75.93
2022-11-28T19:11:56.226Z,80.43
2022-11-28T19:14:25.056Z,78.10
2022-11-28T19:16:57.531Z,73.28
2022-11-28T19:19:26.965Z,70.50
2022-11-28T19:21:55.748Z,83.30
2022-11-28T19:24:27.144Z,85.13
2022-11-28T19:26:55.819Z,83.65
2022-11-28T19:29:27.191Z,87.78
2022-11-28T19:31:56.390Z,74.80
2022-11-28T19:34:27.062Z,78.10
2022-11-28T19:36:55.640Z,82.53
2022-11-28T19:39:28.320Z,89.10
2022-11-28T19:41:57.013Z,87.55
2022-11-28T19:44:29.005Z,89.20
2022-11-28T19:46:58.768Z,83.57
2022-11-28T19:49:29.639Z,92.63
2022-11-28T19:51:58.055Z,84.65
2022-11-28T19:54:31.727Z,87.57
2022-11-28T19:57:00.034Z,83.57
2022-11-28T19:59:32.101Z,91.43
2022-11-28T20:02:02.709Z,84.22
2022-11-28T20:04:31.530Z,95.60
2022-11-28T20:07:06.415Z,99.28
2022-11-28T20:09:36.347Z,94.70
2022-11-28T20:12:10.305Z,95.90
2022-11-28T20:14:45.050Z,99.25
2022-11-28T20:17:16.007Z,101.88
2022-11-28T20:19:48.134Z,96.75
2022-11-28T20:22:22.839Z,100.88
2022-11-28T20:24:57.370Z,87.47
2022-11-28T20:27:25.335Z,94.82
2022-11-28T20:29:53.279Z,93.80
2022-11-28T20:32:21.328Z,99.30
2022-11-28T20:34:53.795Z,96.85
2022-11-28T20:37:21.851Z,99.07
2022-11-28T20:39:50.300Z,102.20
2022-11-28T20:42:20.536Z,94.50
2022-11-28T20:44:48.954Z,87.80
2022-11-28T20:47:17.398Z,99.22
2022-11-28T20:49:45.649Z,101.10
2022-11-28T20:52:14.004Z,93.25
2022-11-28T20:54:42.201Z,98.75
2022-11-28T20:57:25.508Z,103.90
2022-11-28T20:59:56.872Z,94.82
2022-11-28T21:02:25.137Z,99.73
2022-11-28T21:04:54.489Z,85.85
2022-11-28T21:07:23.978Z,93.47
2022-11-28T21:09:54.048Z,93.13
2022-11-28T21:12:23.301Z,85.28
2022-11-28T21:14:54.468Z,91.63
2022-11-28T21:17:24.126Z,83.93
2022-11-28T21:19:52.852Z,93.18
2022-11-28T21:22:20.841Z,87.75
2022-11-28T21:24:51.330Z,99.60
2022-11-28T21:27:19.934Z,85.65
2022-11-28T21:29:50.772Z,87.07
2022-11-28T21:32:19.003Z,81.20
2022-11-28T21:34:48.656Z,81.40
2022-11-28T21:37:16.866Z,90.75
2022-11-28T21:39:45.575Z,95.15
2022-11-28T21:42:20.186Z,86.35
2022-11-28T21:44:51.956Z,92.80
2022-11-28T21:47:20.085Z,85.70
2022-11-28T21:49:49.652Z,87.13
2022-11-28T21:52:23.430Z,94.60
2022-11-28T21:54:51.834Z,81.93
2022-11-28T21:57:20.290Z,88.32
2022-11-28T21:59:49.385Z,90.38
2022-11-28T22:02:18.031Z,84.20
2022-11-28T22:04:46.549Z,85.70
2022-11-28T22:07:16.508Z,90.82
2022-11-28T22:09:45.872Z,82.28
2022-11-28T22:12:14.914Z,83.82
2022-11-28T22:14:43.064Z,82.68
2022-11-28T22:17:12.505Z,87.40
2022-11-28T22:19:40.560Z,86.45
2022-11-28T22:22:08.731Z,88.97
2022-11-28T22:24:38.213Z,81.45
2022-11-28T22:27:06.896Z,85.10
2022-11-28T22:29:34.974Z,77.95
2022-11-28T22:32:03.396Z,87.10
2022-11-28T22:34:38.392Z,83.90
2022-11-28T22:37:08.661Z,84.00
2022-11-28T22:39:38.992Z,84.13
2022-11-28T22:42:08.635Z,83.13
2022-11-28T22:44:37.692Z,83.80
2022-11-28T22:47:06.293Z,77.35
2022-11-28T22:49:34.377Z,83.88
2022-11-28T22:52:02.494Z,80.95
2022-11-28T22:54:31.545Z,71.18
2022-11-28T22:57:01.227Z,88.00
2022-11-28T22:59:29.552Z,83.38
2022-11-28T23:01:58.127Z,81.32
2022-11-28T23:04:26.100Z,79.03
2022-11-28T23:06:54.180Z,92.70
2022-11-28T23:09:22.265Z,86.70
2022-11-28T23:11:50.293Z,82.72
2022-11-28T23:14:19.699Z,82.18
2022-11-28T23:16:47.992Z,87.75
2022-11-28T23:19:19.212Z,91.13
2022-11-28T23:21:49.216Z,81.18
2022-11-28T23:24:20.488Z,90.05
2022-11-28T23:26:49.931Z,90.27
2022-11-28T23:29:20.894Z,87.90
2022-11-28T23:31:49.309Z,91.10
2022-11-28T23:34:17.793Z,80.88
2022-11-28T23:36:49.599Z,82.03
2022-11-28T23:39:19.959Z,86.07
2022-11-28T23:41:48.454Z,81.93
2022-11-28T23:44:19.644Z,82.78
2022-11-28T23:46:50.445Z,84.45
2022-11-28T23:49:19.122Z,82.50
2022-11-28T23:51:47.516Z,86.25
2022-11-28T23:54:16.491Z,93.70
2022-11-28T23:56:46.303Z,85.85
2022-11-28T23:59:14.510Z,93.65
